Yalesville, Connecticut
Current Conditions -  °F | °C
As of 7:05 PM on Wednesday 26 Nov 2014 (Local Time) from KMMK Reporting Station
Light Snow Light Snow  
Wind Chill: 26°   Ceiling: 1300
Heat Index: 35°   Visibility: 2mi
Dew Point: 31°   Wind: 15mph
Humidity: 85%   Direction: 350°N
Pressure: 29.75"   Gusts: 25mph
Location:  41.4596°N, 72.818°W
Report Text: KMMK 270005Z AUTO 35013G22KT 2SM -SN BR BKN013 OVC020 02/M01 A2975 RMK AO2 RAE2354SNB2354 P0001 T00171006 TSNO
Loading
Personal Weather Stations






























Interactive Weather Map New forecast layout! Learn more

10-Day Weather Forecast

Advertisements
Track Severe Weather on mobile